Terminal Aerodrome Forecast
Issued by NWS Wakefield, VA

Home | Current Version | Previous Version | Text Only | Print | Product List | Glossary On
Versions: 1 2 3 4 5 6 7 8 9 10 11 12 13 14 15 16
000
FTUS41 KAKQ 040554 RRA
TAFRIC
TAF
KRIC 040554Z 0406/0506 07005KT 6SM -RA BR BKN007 OVC040
     FM040900 21004KT 4SM BR OVC007
     FM041500 25010KT P6SM VCSH SCT020 BKN050
     FM050100 36004KT P6SM SCT050 OVC100=

USA.gov is the U.S. government's official web portal to all federal, state and local government web resources and services.